createdAt,value
2017-08-09T00:00:01.833Z,998.36
2017-08-09T00:01:01.861Z,998.37
2017-08-09T00:02:01.876Z,998.29
2017-08-09T00:03:01.910Z,998.29
2017-08-09T00:04:01.930Z,998.34
2017-08-09T00:05:01.951Z,998.28
2017-08-09T00:06:01.972Z,998.31
2017-08-09T00:07:01.996Z,998.35
2017-08-09T00:08:02.019Z,998.41
2017-08-09T00:09:02.174Z,998.41
2017-08-09T00:10:02.066Z,998.45
2017-08-09T00:11:02.095Z,998.48
2017-08-09T00:12:02.109Z,998.44
2017-08-09T00:13:02.136Z,998.49
2017-08-09T00:14:02.158Z,998.49
2017-08-09T00:15:02.190Z,998.52
2017-08-09T00:16:02.212Z,998.48
2017-08-09T00:17:02.233Z,998.51
2017-08-09T00:18:02.251Z,998.52
2017-08-09T00:19:02.279Z,998.48
2017-08-09T00:20:02.303Z,998.43
2017-08-09T00:21:02.321Z,998.45
2017-08-09T00:22:02.347Z,998.45
2017-08-09T00:23:02.370Z,998.51
2017-08-09T00:24:02.395Z,998.51
2017-08-09T00:25:02.417Z,998.56
2017-08-09T00:26:02.439Z,998.59
2017-08-09T00:27:02.469Z,998.59
2017-08-09T00:28:02.485Z,998.61
2017-08-09T00:29:02.520Z,998.60
2017-08-09T00:30:02.534Z,998.66
2017-08-09T00:31:02.557Z,998.63
2017-08-09T00:32:02.581Z,998.63
2017-08-09T00:33:02.603Z,998.63
2017-08-09T00:34:02.631Z,998.67
2017-08-09T00:35:02.649Z,998.68
2017-08-09T00:36:02.676Z,998.63
2017-08-09T00:37:02.697Z,998.62
2017-08-09T00:38:02.722Z,998.60
2017-08-09T00:39:02.750Z,998.57
2017-08-09T00:40:02.769Z,998.55
2017-08-09T00:41:02.794Z,998.55
2017-08-09T00:42:02.815Z,998.54
2017-08-09T00:43:02.838Z,998.53
2017-08-09T00:44:02.864Z,998.53
2017-08-09T00:45:02.887Z,998.53
2017-08-09T00:46:02.911Z,998.51
2017-08-09T00:47:02.933Z,998.53
2017-08-09T00:48:02.958Z,998.56
2017-08-09T00:49:02.980Z,998.60
2017-08-09T00:50:03.006Z,998.59
2017-08-09T00:51:03.024Z,998.60
2017-08-09T00:52:03.066Z,998.55
2017-08-09T00:53:03.071Z,998.62
2017-08-09T00:54:03.095Z,998.64
2017-08-09T00:55:03.123Z,998.63
2017-08-09T00:56:03.152Z,998.63
2017-08-09T00:57:03.168Z,998.66
2017-08-09T00:58:03.194Z,998.60
2017-08-09T00:59:03.360Z,998.57
2017-08-09T01:00:03.255Z,998.56
2017-08-09T01:01:03.260Z,998.54
2017-08-09T01:02:03.283Z,998.57
2017-08-09T01:03:03.308Z,998.59
2017-08-09T01:04:03.339Z,998.59
2017-08-09T01:05:03.353Z,998.60
2017-08-09T01:06:03.375Z,998.63
2017-08-09T01:07:03.421Z,998.62
2017-08-09T01:08:03.427Z,998.66
2017-08-09T01:09:03.447Z,998.68
2017-08-09T01:10:03.471Z,998.69
2017-08-09T01:11:03.494Z,998.68
2017-08-09T01:12:03.518Z,998.66
2017-08-09T01:13:03.541Z,998.68
2017-08-09T01:14:03.563Z,998.72
2017-08-09T01:15:03.586Z,998.74
2017-08-09T01:16:03.611Z,998.71
2017-08-09T01:17:03.634Z,998.69
2017-08-09T01:18:03.656Z,998.71
2017-08-09T01:19:03.686Z,998.67
2017-08-09T01:20:03.706Z,998.66
2017-08-09T01:21:03.728Z,998.69
2017-08-09T01:22:03.755Z,998.72
2017-08-09T01:23:03.779Z,998.72
2017-08-09T01:24:03.806Z,998.73
2017-08-09T01:25:03.822Z,998.74
2017-08-09T01:26:03.841Z,998.76
2017-08-09T01:27:03.867Z,998.79
2017-08-09T01:28:03.892Z,998.80
2017-08-09T01:29:03.917Z,998.80
2017-08-09T01:30:03.953Z,998.79
2017-08-09T01:31:03.964Z,998.79
2017-08-09T01:32:03.983Z,998.76
2017-08-09T01:33:04.010Z,998.79
2017-08-09T01:34:04.031Z,998.80
2017-08-09T01:35:04.053Z,998.86
2017-08-09T01:36:04.084Z,998.89
2017-08-09T01:37:04.109Z,998.89
2017-08-09T01:38:04.121Z,998.88
2017-08-09T01:39:04.147Z,998.86
2017-08-09T01:40:04.180Z,998.86
2017-08-09T01:41:04.194Z,998.83
2017-08-09T01:42:04.220Z,998.84
2017-08-09T01:43:04.241Z,998.85
2017-08-09T01:44:04.263Z,998.86
2017-08-09T01:45:04.291Z,998.89
2017-08-09T01:46:04.308Z,998.91
2017-08-09T01:47:04.337Z,998.90
2017-08-09T01:48:04.354Z,998.91
2017-08-09T01:49:04.381Z,998.95
2017-08-09T01:50:04.402Z,998.96
2017-08-09T01:51:04.424Z,998.98
2017-08-09T01:52:04.449Z,998.96
2017-08-09T01:53:04.471Z,998.94
2017-08-09T01:54:04.496Z,998.92
2017-08-09T01:55:04.520Z,998.92
2017-08-09T01:56:04.541Z,998.90
2017-08-09T01:57:04.568Z,998.90
2017-08-09T01:58:04.587Z,998.90
2017-08-09T01:59:04.611Z,998.94
2017-08-09T02:00:04.636Z,998.93
2017-08-09T02:01:04.659Z,998.93
2017-08-09T02:02:04.680Z,998.92
2017-08-09T02:03:04.705Z,998.95
2017-08-09T02:04:04.726Z,998.95
2017-08-09T02:05:04.752Z,998.97
2017-08-09T02:06:04.778Z,998.97
2017-08-09T02:07:04.795Z,999.00
2017-08-09T02:08:04.819Z,998.99
2017-08-09T02:09:04.844Z,999.01
2017-08-09T02:10:04.867Z,999.02
2017-08-09T02:11:04.895Z,999.01
2017-08-09T02:12:04.913Z,999.03
2017-08-09T02:13:04.939Z,999.05
2017-08-09T02:14:04.958Z,999.02
2017-08-09T02:15:05.006Z,999.05
2017-08-09T02:16:05.005Z,999.06
2017-08-09T02:17:05.029Z,999.11
2017-08-09T02:18:05.057Z,999.07
2017-08-09T02:19:05.076Z,999.07
2017-08-09T02:20:05.097Z,999.04
2017-08-09T02:21:05.120Z,999.04
2017-08-09T02:22:05.144Z,999.03
2017-08-09T02:23:05.169Z,999.01
2017-08-09T02:24:05.194Z,999.03
2017-08-09T02:25:05.216Z,999.02
2017-08-09T02:26:05.236Z,999.06
2017-08-09T02:27:05.263Z,999.05
2017-08-09T02:28:05.286Z,999.02
2017-08-09T02:29:05.305Z,999.01
2017-08-09T02:30:05.332Z,998.97
2017-08-09T02:31:05.357Z,998.98
2017-08-09T02:32:05.378Z,998.97
2017-08-09T02:33:05.398Z,998.95
2017-08-09T02:34:05.425Z,998.96
2017-08-09T02:35:05.444Z,998.91
2017-08-09T02:36:05.469Z,998.92
2017-08-09T02:37:05.492Z,998.91
2017-08-09T02:38:05.555Z,998.89
2017-08-09T02:39:05.539Z,998.91
2017-08-09T02:40:05.562Z,998.90
2017-08-09T02:41:05.583Z,998.88
2017-08-09T02:42:05.608Z,998.92
2017-08-09T02:43:05.629Z,998.91
2017-08-09T02:44:05.661Z,998.90
2017-08-09T02:45:05.681Z,998.90
2017-08-09T02:46:05.711Z,998.91
2017-08-09T02:47:05.724Z,998.88
2017-08-09T02:48:05.748Z,998.87
2017-08-09T02:49:05.771Z,998.85
2017-08-09T02:50:05.795Z,998.81
2017-08-09T02:51:05.815Z,998.80
2017-08-09T02:52:05.846Z,998.82
2017-08-09T02:53:05.861Z,998.82
2017-08-09T02:54:05.887Z,998.86
2017-08-09T02:55:05.909Z,998.91
2017-08-09T02:56:05.931Z,998.90
2017-08-09T02:57:05.953Z,998.90
2017-08-09T02:58:05.975Z,998.94
2017-08-09T02:59:06.001Z,999.00
2017-08-09T03:00:06.022Z,999.01
2017-08-09T03:01:06.063Z,999.01
2017-08-09T03:02:06.068Z,999.01
2017-08-09T03:03:06.093Z,999.02
2017-08-09T03:04:06.116Z,998.98
2017-08-09T03:05:06.141Z,998.99
2017-08-09T03:06:06.172Z,998.97
2017-08-09T03:07:06.194Z,998.97
2017-08-09T03:08:06.209Z,998.95
2017-08-09T03:09:06.229Z,998.90
2017-08-09T03:10:06.254Z,998.92
2017-08-09T03:11:06.286Z,998.92
2017-08-09T03:12:06.310Z,998.96
2017-08-09T03:13:06.326Z,998.95
2017-08-09T03:14:06.348Z,998.96
2017-08-09T03:15:06.381Z,998.96
2017-08-09T03:16:06.393Z,999.03
2017-08-09T03:17:06.424Z,998.99
2017-08-09T03:18:06.440Z,999.03
2017-08-09T03:19:06.460Z,999.04
2017-08-09T03:20:06.485Z,999.06
2017-08-09T03:21:06.506Z,999.06
2017-08-09T03:22:06.530Z,999.10
2017-08-09T03:23:06.554Z,999.14
2017-08-09T03:24:06.581Z,999.14
2017-08-09T03:25:06.601Z,999.13
2017-08-09T03:26:06.623Z,999.13
2017-08-09T03:27:06.653Z,999.15
2017-08-09T03:28:06.672Z,999.15
2017-08-09T03:29:06.694Z,999.13
2017-08-09T03:30:06.721Z,999.19
2017-08-09T03:31:06.742Z,999.21
2017-08-09T03:32:06.760Z,999.23
2017-08-09T03:33:06.786Z,999.30
2017-08-09T03:34:06.813Z,999.25
2017-08-09T03:35:06.829Z,999.23
2017-08-09T03:36:06.865Z,999.26
2017-08-09T03:37:06.880Z,999.28
2017-08-09T03:38:06.901Z,999.28
2017-08-09T03:39:06.927Z,999.25
2017-08-09T03:40:06.955Z,999.29
2017-08-09T03:41:06.972Z,999.26
2017-08-09T03:42:06.992Z,999.22
2017-08-09T03:43:07.016Z,999.21
2017-08-09T03:44:07.040Z,999.17
2017-08-09T03:45:07.060Z,999.23
2017-08-09T03:46:07.084Z,999.22
2017-08-09T03:47:07.111Z,999.18
2017-08-09T03:48:07.134Z,999.15
2017-08-09T03:49:07.166Z,999.18
2017-08-09T03:50:07.176Z,999.15
2017-08-09T03:51:07.201Z,999.14
2017-08-09T03:52:07.225Z,999.17
2017-08-09T03:53:07.248Z,999.16
2017-08-09T03:54:07.273Z,999.22
2017-08-09T03:55:07.292Z,999.25
2017-08-09T03:56:07.316Z,999.28
2017-08-09T03:57:07.346Z,999.24
2017-08-09T03:58:07.363Z,999.24
2017-08-09T03:59:07.399Z,999.24
2017-08-09T04:00:07.412Z,999.26
2017-08-09T04:01:07.434Z,999.28
2017-08-09T04:02:07.454Z,999.21
2017-08-09T04:03:07.478Z,999.17
2017-08-09T04:04:07.500Z,999.19
2017-08-09T04:05:07.532Z,999.24
2017-08-09T04:06:07.555Z,999.23
2017-08-09T04:07:07.573Z,999.25
2017-08-09T04:08:07.604Z,999.25
2017-08-09T04:09:07.618Z,999.26
2017-08-09T04:10:07.640Z,999.29
2017-08-09T04:11:07.664Z,999.31
2017-08-09T04:12:07.686Z,999.35
2017-08-09T04:13:07.717Z,999.40
2017-08-09T04:14:07.731Z,999.39
2017-08-09T04:15:07.761Z,999.42
2017-08-09T04:16:07.790Z,999.42
2017-08-09T04:17:07.804Z,999.40
2017-08-09T04:18:07.824Z,999.43
2017-08-09T04:19:07.850Z,999.42
2017-08-09T04:20:07.870Z,999.40
2017-08-09T04:21:07.900Z,999.40
2017-08-09T04:22:07.925Z,999.41
2017-08-09T04:23:07.947Z,999.40
2017-08-09T04:24:07.966Z,999.43
2017-08-09T04:25:07.991Z,999.45
2017-08-09T04:26:08.011Z,999.46
2017-08-09T04:27:08.039Z,999.45
2017-08-09T04:28:08.069Z,999.50
2017-08-09T04:29:08.081Z,999.51
2017-08-09T04:30:08.106Z,999.51
2017-08-09T04:31:08.129Z,999.56
2017-08-09T04:32:08.150Z,999.56
2017-08-09T04:33:08.171Z,999.57
2017-08-09T04:34:08.193Z,999.58
2017-08-09T04:35:08.219Z,999.56
2017-08-09T04:36:08.239Z,999.59
2017-08-09T04:37:08.265Z,999.61
2017-08-09T04:38:08.291Z,999.61
2017-08-09T04:39:08.308Z,999.60
2017-08-09T04:40:08.340Z,999.59
2017-08-09T04:41:08.360Z,999.66
2017-08-09T04:42:08.385Z,999.67
2017-08-09T04:43:08.529Z,999.72
2017-08-09T04:44:08.427Z,999.75
2017-08-09T04:45:08.453Z,999.78
2017-08-09T04:46:08.473Z,999.80
2017-08-09T04:47:08.496Z,999.84
2017-08-09T04:48:08.526Z,999.83
2017-08-09T04:49:08.544Z,999.84
2017-08-09T04:50:08.568Z,999.85
2017-08-09T04:51:08.588Z,999.85
2017-08-09T04:52:08.611Z,999.85
2017-08-09T04:53:08.640Z,999.86
2017-08-09T04:54:08.660Z,999.87
2017-08-09T04:55:08.689Z,999.87
2017-08-09T04:56:08.705Z,999.88
2017-08-09T04:57:08.725Z,999.91
2017-08-09T04:58:08.750Z,999.93
2017-08-09T04:59:08.792Z,999.91
2017-08-09T05:00:08.797Z,999.89
2017-08-09T05:01:08.820Z,999.86
2017-08-09T05:02:08.853Z,999.85
2017-08-09T05:03:08.865Z,999.85
2017-08-09T05:04:08.890Z,999.84
2017-08-09T05:05:08.914Z,999.86
2017-08-09T05:06:08.941Z,999.85
2017-08-09T05:07:08.958Z,999.82
2017-08-09T05:08:08.994Z,999.85
2017-08-09T05:09:09.007Z,999.86
2017-08-09T05:10:09.028Z,999.86
2017-08-09T05:11:09.057Z,999.84
2017-08-09T05:12:09.086Z,999.81
2017-08-09T05:13:09.100Z,999.82
2017-08-09T05:14:09.132Z,999.77
2017-08-09T05:15:09.147Z,999.79
2017-08-09T05:16:09.172Z,999.80
2017-08-09T05:17:09.195Z,999.84
2017-08-09T05:18:09.224Z,999.78
2017-08-09T05:19:09.244Z,999.79
2017-08-09T05:20:09.274Z,999.79
2017-08-09T05:21:09.293Z,999.78
2017-08-09T05:22:09.320Z,999.82
2017-08-09T05:23:09.341Z,999.81
2017-08-09T05:24:09.376Z,999.83
2017-08-09T05:25:09.406Z,999.81
2017-08-09T05:26:09.433Z,999.81
2017-08-09T05:27:09.438Z,999.84
2017-08-09T05:28:09.466Z,999.85
2017-08-09T05:29:09.494Z,999.88
2017-08-09T05:30:09.516Z,999.92
2017-08-09T05:31:09.554Z,999.91
2017-08-09T05:32:09.563Z,999.90
2017-08-09T05:33:09.586Z,999.95
2017-08-09T05:34:09.613Z,999.96
2017-08-09T05:35:09.638Z,999.94
2017-08-09T05:36:09.662Z,999.91
2017-08-09T05:37:09.690Z,999.95
2017-08-09T05:38:09.712Z,999.97
2017-08-09T05:39:09.737Z,999.95
2017-08-09T05:40:09.766Z,999.98
2017-08-09T05:41:09.791Z,999.96
2017-08-09T05:42:09.817Z,999.96
2017-08-09T05:43:09.836Z,1000.00
2017-08-09T05:44:09.862Z,1000.00
2017-08-09T05:45:09.886Z,1000.02
2017-08-09T05:46:09.914Z,999.95
2017-08-09T05:47:09.941Z,999.98
2017-08-09T05:48:09.965Z,999.94
2017-08-09T05:49:09.988Z,999.95
2017-08-09T05:50:10.015Z,999.95
2017-08-09T05:51:10.040Z,999.95
2017-08-09T05:52:10.067Z,999.96
2017-08-09T05:53:10.092Z,1000.04
2017-08-09T05:54:10.111Z,1000.03
2017-08-09T05:55:10.136Z,1000.02
2017-08-09T05:56:10.166Z,1000.01
2017-08-09T05:57:10.187Z,1000.13
2017-08-09T05:58:10.214Z,1000.13
2017-08-09T05:59:10.239Z,1000.15
2017-08-09T06:00:10.262Z,1000.19
2017-08-09T06:01:10.290Z,1000.17
2017-08-09T06:02:10.312Z,1000.16
2017-08-09T06:03:10.340Z,1000.18
2017-08-09T06:04:10.369Z,1000.16
2017-08-09T06:05:10.393Z,1000.21
2017-08-09T06:06:10.417Z,1000.24
2017-08-09T06:07:10.441Z,1000.23
2017-08-09T06:08:10.468Z,1000.28
2017-08-09T06:09:10.492Z,1000.32
2017-08-09T06:10:10.523Z,1000.37
2017-08-09T06:11:10.543Z,1000.36
2017-08-09T06:12:10.571Z,1000.42
2017-08-09T06:13:10.596Z,1000.38
2017-08-09T06:14:10.633Z,1000.38
2017-08-09T06:15:10.647Z,1000.41
2017-08-09T06:16:10.674Z,1000.38
2017-08-09T06:17:10.700Z,1000.40
2017-08-09T06:18:10.723Z,1000.39
2017-08-09T06:19:10.749Z,1000.42
2017-08-09T06:20:10.778Z,1000.38
2017-08-09T06:21:10.805Z,1000.44
2017-08-09T06:22:10.824Z,1000.41
2017-08-09T06:23:10.857Z,1000.45
2017-08-09T06:24:10.878Z,1000.48
2017-08-09T06:25:10.905Z,1000.51
2017-08-09T06:26:10.937Z,1000.53
2017-08-09T06:27:10.954Z,1000.55
2017-08-09T06:28:10.979Z,1000.61
2017-08-09T06:29:11.006Z,1000.57
2017-08-09T06:30:11.029Z,1000.61
2017-08-09T06:31:11.059Z,1000.60
2017-08-09T06:32:11.080Z,1000.67
2017-08-09T06:33:11.106Z,1000.69
2017-08-09T06:34:11.135Z,1000.70
2017-08-09T06:35:11.157Z,1000.75
2017-08-09T06:36:11.193Z,1000.76
2017-08-09T06:37:11.213Z,1000.83
2017-08-09T06:38:11.234Z,1000.85
2017-08-09T06:39:11.259Z,1000.86
2017-08-09T06:40:11.282Z,1000.88
2017-08-09T06:41:11.312Z,1000.86
2017-08-09T06:42:11.330Z,1000.85
2017-08-09T06:43:11.359Z,1000.89
2017-08-09T06:44:11.384Z,1000.88
2017-08-09T06:45:11.408Z,1000.92
2017-08-09T06:46:11.449Z,1000.90
2017-08-09T06:47:11.462Z,1000.94
2017-08-09T06:48:11.506Z,1000.90
2017-08-09T06:49:11.512Z,1000.96
2017-08-09T06:50:11.532Z,1000.94
2017-08-09T06:51:11.558Z,1000.97
2017-08-09T06:52:11.594Z,1000.95
2017-08-09T06:53:11.609Z,1000.98
2017-08-09T06:54:11.643Z,1000.97
2017-08-09T06:55:11.658Z,1001.04
2017-08-09T06:56:11.686Z,1000.98
2017-08-09T06:57:11.722Z,1001.01
2017-08-09T06:58:11.750Z,1001.02
2017-08-09T06:59:11.768Z,1001.01
2017-08-09T07:00:11.788Z,1001.04
2017-08-09T07:01:11.811Z,1001.02
2017-08-09T07:02:11.844Z,1001.02
2017-08-09T07:03:11.868Z,1001.05
2017-08-09T07:04:11.899Z,1001.05
2017-08-09T07:05:11.910Z,1001.05
2017-08-09T07:06:11.935Z,1001.06
2017-08-09T07:07:11.958Z,1001.07
2017-08-09T07:08:11.990Z,1001.01
2017-08-09T07:09:12.015Z,1001.01
2017-08-09T07:10:12.056Z,1001.03
2017-08-09T07:11:12.066Z,1001.07
2017-08-09T07:12:12.084Z,1001.07
2017-08-09T07:13:12.114Z,1001.14
2017-08-09T07:14:12.138Z,1001.12
2017-08-09T07:15:12.172Z,1001.14
2017-08-09T07:16:12.189Z,1001.14
2017-08-09T07:17:12.212Z,1001.17
2017-08-09T07:18:12.242Z,1001.22
2017-08-09T07:19:12.265Z,1001.25
2017-08-09T07:20:12.299Z,1001.21
2017-08-09T07:21:12.328Z,1001.17
2017-08-09T07:22:12.346Z,1001.22
2017-08-09T07:23:12.366Z,1001.25
2017-08-09T07:24:12.396Z,1001.27
2017-08-09T07:25:12.419Z,1001.25
2017-08-09T07:26:12.445Z,1001.31
2017-08-09T07:27:12.476Z,1001.37
2017-08-09T07:28:12.506Z,1001.41
2017-08-09T07:29:12.533Z,1001.45
2017-08-09T07:30:12.550Z,1001.51
2017-08-09T07:31:12.577Z,1001.51
2017-08-09T07:32:12.601Z,1001.45
2017-08-09T07:33:12.633Z,1001.44
2017-08-09T07:34:12.655Z,1001.42
2017-08-09T07:35:12.685Z,1001.35
2017-08-09T07:36:12.710Z,1001.44
2017-08-09T07:37:12.744Z,1001.34
2017-08-09T07:38:12.761Z,1001.37
2017-08-09T07:39:12.796Z,1001.46
2017-08-09T07:40:12.813Z,1001.53
2017-08-09T07:41:12.842Z,1001.47
2017-08-09T07:42:12.864Z,1001.43
2017-08-09T07:43:12.892Z,1001.41
2017-08-09T07:44:12.917Z,1001.44
2017-08-09T07:45:12.941Z,1001.40
2017-08-09T07:46:12.967Z,1001.44
2017-08-09T07:47:12.997Z,1001.39
2017-08-09T07:48:13.020Z,1001.41
2017-08-09T07:49:13.046Z,1001.40
2017-08-09T07:50:13.074Z,1001.46
2017-08-09T07:51:13.103Z,1001.46
2017-08-09T07:52:13.127Z,1001.43
2017-08-09T07:53:13.152Z,1001.42
2017-08-09T07:54:13.177Z,1001.43
2017-08-09T07:55:13.203Z,1001.39
2017-08-09T07:56:13.247Z,1001.24
2017-08-09T07:57:13.254Z,1001.28
2017-08-09T07:58:13.283Z,1001.25
2017-08-09T07:59:13.350Z,1001.32
2017-08-09T08:00:13.333Z,1001.30
2017-08-09T08:01:13.360Z,1001.37
2017-08-09T08:02:13.383Z,1001.38
2017-08-09T08:03:13.410Z,1001.38
2017-08-09T08:04:13.440Z,1001.34
2017-08-09T08:05:13.468Z,1001.34
2017-08-09T08:06:13.487Z,1001.25
2017-08-09T08:07:13.513Z,1001.17
2017-08-09T08:08:13.538Z,1001.28
2017-08-09T08:09:13.564Z,1001.29
2017-08-09T08:10:13.589Z,1001.20
2017-08-09T08:11:13.629Z,1001.34
2017-08-09T08:12:13.645Z,1001.22
2017-08-09T08:13:13.666Z,1001.25
2017-08-09T08:14:13.693Z,1001.25
2017-08-09T08:15:13.720Z,1001.25
2017-08-09T08:16:13.744Z,1001.22
2017-08-09T08:17:13.769Z,1001.19
2017-08-09T08:18:13.797Z,1001.23
2017-08-09T08:19:13.823Z,1001.25
2017-08-09T08:20:13.849Z,1001.28
2017-08-09T08:21:13.875Z,1001.24
2017-08-09T08:22:13.897Z,1001.29
2017-08-09T08:23:13.925Z,1001.32
2017-08-09T08:24:13.955Z,1001.30
2017-08-09T08:25:13.974Z,1001.31
2017-08-09T08:26:14.009Z,1001.36
2017-08-09T08:27:14.029Z,1001.35
2017-08-09T08:28:14.059Z,1001.33
2017-08-09T08:29:14.078Z,1001.32
2017-08-09T08:30:14.100Z,1001.27
2017-08-09T08:31:14.130Z,1001.28
2017-08-09T08:32:14.154Z,1001.24
2017-08-09T08:33:14.182Z,1001.26
2017-08-09T08:34:14.205Z,1001.27
2017-08-09T08:35:14.244Z,1001.31
2017-08-09T08:36:14.256Z,1001.24
2017-08-09T08:37:14.286Z,1001.25
2017-08-09T08:38:14.308Z,1001.29
2017-08-09T08:39:14.332Z,1001.30
2017-08-09T08:40:14.369Z,1001.33
2017-08-09T08:41:14.387Z,1001.29
2017-08-09T08:42:14.410Z,1001.34
2017-08-09T08:43:14.435Z,1001.39
2017-08-09T08:44:14.462Z,1001.42
2017-08-09T08:45:14.496Z,1001.43
2017-08-09T08:46:14.518Z,1001.46
2017-08-09T08:47:14.542Z,1001.46
2017-08-09T08:48:14.562Z,1001.53
2017-08-09T08:49:14.591Z,1001.53
2017-08-09T08:50:14.619Z,1001.53
2017-08-09T08:51:14.640Z,1001.52
2017-08-09T08:52:14.666Z,1001.59
2017-08-09T08:53:14.694Z,1001.57
2017-08-09T08:54:14.717Z,1001.56
2017-08-09T08:55:14.740Z,1001.55
2017-08-09T08:56:14.769Z,1001.54
2017-08-09T08:57:14.792Z,1001.55
2017-08-09T08:58:14.820Z,1001.58
2017-08-09T08:59:14.845Z,1001.62
2017-08-09T09:00:14.870Z,1001.57
2017-08-09T09:01:14.898Z,1001.62
2017-08-09T09:02:14.927Z,1001.65
2017-08-09T09:03:14.952Z,1001.63
2017-08-09T09:04:14.977Z,1001.64
2017-08-09T09:05:15.000Z,1001.67
2017-08-09T09:06:15.022Z,1001.71
2017-08-09T09:07:15.049Z,1001.69
2017-08-09T09:08:15.074Z,1001.70
2017-08-09T09:09:15.098Z,1001.73
2017-08-09T09:10:15.125Z,1001.76
2017-08-09T09:11:15.151Z,1001.78
2017-08-09T09:12:15.173Z,1001.79
2017-08-09T09:13:15.198Z,1001.74
2017-08-09T09:14:15.227Z,1001.77
2017-08-09T09:15:15.253Z,1001.79
2017-08-09T09:16:15.278Z,1001.80
2017-08-09T09:17:15.317Z,1001.83
2017-08-09T09:18:15.327Z,1001.81
2017-08-09T09:19:15.365Z,1001.78
2017-08-09T09:20:15.379Z,1001.78
2017-08-09T09:21:15.404Z,1001.79
2017-08-09T09:22:15.433Z,1001.79
2017-08-09T09:23:15.454Z,1001.88
2017-08-09T09:24:15.488Z,1001.88
2017-08-09T09:25:15.511Z,1001.93
2017-08-09T09:26:15.535Z,1001.90
2017-08-09T09:27:15.554Z,1001.86
2017-08-09T09:28:15.591Z,1001.84
2017-08-09T09:29:15.610Z,1001.81
2017-08-09T09:30:15.634Z,1001.81
2017-08-09T09:31:15.656Z,1001.76
2017-08-09T09:32:15.683Z,1001.81
2017-08-09T09:33:15.708Z,1001.84
2017-08-09T09:34:15.737Z,1001.80
2017-08-09T09:35:15.772Z,1001.82
2017-08-09T09:36:15.792Z,1001.87
2017-08-09T09:37:15.815Z,1001.86
2017-08-09T09:38:15.836Z,1001.87
2017-08-09T09:39:15.862Z,1001.86
2017-08-09T09:40:15.886Z,1001.82
2017-08-09T09:41:15.922Z,1001.87
2017-08-09T09:42:15.937Z,1001.81
2017-08-09T09:43:15.962Z,1001.92
2017-08-09T09:44:15.989Z,1001.92
2017-08-09T09:45:16.015Z,1001.94
2017-08-09T09:46:16.044Z,1001.93
2017-08-09T09:47:16.068Z,1001.95
2017-08-09T09:48:16.094Z,1001.94
2017-08-09T09:49:16.115Z,1001.96
2017-08-09T09:50:16.142Z,1001.91
2017-08-09T09:51:16.177Z,1001.92
2017-08-09T09:52:16.331Z,1001.88
2017-08-09T09:53:16.221Z,1001.85
2017-08-09T09:54:16.242Z,1001.86
2017-08-09T09:55:16.270Z,1001.86
2017-08-09T09:56:16.294Z,1001.89
2017-08-09T09:57:16.319Z,1001.87
2017-08-09T09:58:16.346Z,1001.94
2017-08-09T09:59:16.370Z,1001.91
2017-08-09T10:00:16.400Z,1001.92
2017-08-09T10:01:16.424Z,1001.92
2017-08-09T10:02:16.449Z,1001.93
2017-08-09T10:03:16.474Z,1001.95
2017-08-09T10:04:16.501Z,1001.97
2017-08-09T10:05:16.521Z,1001.97
2017-08-09T10:06:16.546Z,1001.96
2017-08-09T10:07:16.577Z,1001.99
2017-08-09T10:08:16.600Z,1001.91
2017-08-09T10:09:16.627Z,1001.93
2017-08-09T10:10:16.650Z,1001.93
2017-08-09T10:11:16.675Z,1001.96
2017-08-09T10:12:16.700Z,1002.00
2017-08-09T10:13:16.725Z,1002.06
2017-08-09T10:14:16.757Z,1002.07
2017-08-09T10:15:16.776Z,1002.07
2017-08-09T10:16:16.800Z,1002.10
2017-08-09T10:17:16.830Z,1002.08
2017-08-09T10:18:16.851Z,1002.06
2017-08-09T10:19:16.879Z,1002.12
2017-08-09T10:20:16.912Z,1002.12
2017-08-09T10:21:16.932Z,1002.14
2017-08-09T10:22:16.950Z,1002.12
2017-08-09T10:23:16.985Z,1002.17
2017-08-09T10:24:17.013Z,1002.14
2017-08-09T10:25:17.030Z,1002.13
2017-08-09T10:26:17.055Z,1002.13
2017-08-09T10:27:17.079Z,1002.14
2017-08-09T10:28:17.105Z,1002.10
2017-08-09T10:29:17.136Z,1002.14
2017-08-09T10:30:17.158Z,1002.12
2017-08-09T10:31:17.183Z,1002.11
2017-08-09T10:32:17.207Z,1002.13
2017-08-09T10:33:17.242Z,1002.08
2017-08-09T10:34:17.254Z,1002.08
2017-08-09T10:35:17.282Z,1002.00
2017-08-09T10:36:17.309Z,1002.04
2017-08-09T10:37:17.335Z,1002.08
2017-08-09T10:38:17.371Z,1002.08
2017-08-09T10:39:17.380Z,1002.03
2017-08-09T10:40:17.413Z,1002.08
2017-08-09T10:41:17.432Z,1002.08
2017-08-09T10:42:17.461Z,1002.09
2017-08-09T10:43:17.483Z,1002.09
2017-08-09T10:44:17.514Z,1002.08
2017-08-09T10:45:17.536Z,1002.09
2017-08-09T10:46:17.558Z,1002.00
2017-08-09T10:47:17.592Z,1001.97
2017-08-09T10:48:17.612Z,1001.97
2017-08-09T10:49:17.638Z,1001.98
2017-08-09T10:50:17.659Z,1002.00
2017-08-09T10:51:17.685Z,1001.98
2017-08-09T10:52:17.714Z,1001.98
2017-08-09T10:53:17.746Z,1001.99
2017-08-09T10:54:17.761Z,1001.96
2017-08-09T10:55:17.790Z,1001.99
2017-08-09T10:56:17.817Z,1001.96
2017-08-09T10:57:17.838Z,1001.95
2017-08-09T10:58:17.871Z,1001.96
2017-08-09T10:59:17.887Z,1001.99
2017-08-09T11:00:17.917Z,1002.00
2017-08-09T11:01:17.939Z,1002.03
2017-08-09T11:02:17.965Z,1001.98
2017-08-09T11:03:17.996Z,1002.00
2017-08-09T11:04:18.015Z,1001.98
2017-08-09T11:05:18.041Z,1001.99
2017-08-09T11:06:18.062Z,1001.96
2017-08-09T11:07:18.167Z,1001.97
2017-08-09T11:08:18.115Z,1001.97
2017-08-09T11:09:18.138Z,1001.99
2017-08-09T11:10:18.165Z,1001.94
2017-08-09T11:11:18.192Z,1001.93
2017-08-09T11:12:18.221Z,1001.97
2017-08-09T11:13:18.244Z,1002.02
2017-08-09T11:14:18.278Z,1001.97
2017-08-09T11:15:18.293Z,1001.99
2017-08-09T11:16:18.317Z,1002.09
2017-08-09T11:17:18.353Z,1002.10
2017-08-09T11:18:18.366Z,1002.10
2017-08-09T11:19:18.392Z,1002.12
2017-08-09T11:20:18.417Z,1002.10
2017-08-09T11:21:18.443Z,1002.11
2017-08-09T11:22:18.467Z,1002.14
2017-08-09T11:23:18.495Z,1002.14
2017-08-09T11:24:18.521Z,1002.16
2017-08-09T11:25:18.549Z,1002.13
2017-08-09T11:26:18.573Z,1002.16
2017-08-09T11:27:18.597Z,1002.13
2017-08-09T11:28:18.624Z,1002.19
2017-08-09T11:29:18.676Z,1002.22
2017-08-09T11:30:18.674Z,1002.25
2017-08-09T11:31:18.697Z,1002.23
2017-08-09T11:32:18.738Z,1002.21
2017-08-09T11:33:18.747Z,1002.27
2017-08-09T11:34:18.770Z,1002.22
2017-08-09T11:35:18.798Z,1002.23
2017-08-09T11:36:18.832Z,1002.22
2017-08-09T11:37:18.848Z,1002.20
2017-08-09T11:38:18.873Z,1002.19
2017-08-09T11:39:18.902Z,1002.17
2017-08-09T11:40:18.932Z,1002.18
2017-08-09T11:41:18.952Z,1002.18
2017-08-09T11:42:18.973Z,1002.16
2017-08-09T11:43:18.999Z,1002.19
2017-08-09T11:44:19.027Z,1002.16
2017-08-09T11:45:19.049Z,1002.13
2017-08-09T11:46:19.089Z,1002.11
2017-08-09T11:47:19.106Z,1002.10
2017-08-09T11:48:19.129Z,1002.08
2017-08-09T11:49:19.148Z,1002.05
2017-08-09T11:50:19.173Z,1002.01
2017-08-09T11:51:19.226Z,1002.02
2017-08-09T11:52:19.234Z,1002.02
2017-08-09T11:53:19.439Z,1002.01
2017-08-09T11:54:19.276Z,1002.07
2017-08-09T11:55:19.302Z,1002.07
2017-08-09T11:56:19.326Z,1002.01
2017-08-09T11:57:19.369Z,1002.01
2017-08-09T11:58:19.380Z,1001.98
2017-08-09T11:59:19.404Z,1001.97
2017-08-09T12:00:19.431Z,1002.02
2017-08-09T12:01:19.455Z,1002.00
2017-08-09T12:02:19.483Z,1001.99
2017-08-09T12:03:19.504Z,1002.01
2017-08-09T12:04:19.534Z,1002.01
2017-08-09T12:05:19.556Z,1002.00
2017-08-09T12:06:19.576Z,1002.03
2017-08-09T12:07:19.603Z,1002.03
2017-08-09T12:08:19.631Z,1001.99
2017-08-09T12:09:19.655Z,1002.01
2017-08-09T12:10:19.680Z,1002.02
2017-08-09T12:11:19.706Z,1001.99
2017-08-09T12:12:19.736Z,1002.01
2017-08-09T12:13:19.753Z,1001.98
2017-08-09T12:14:19.779Z,1001.96
2017-08-09T12:15:19.807Z,1001.93
2017-08-09T12:16:19.836Z,1001.94